sensor_id;sensor_type;location;lat;lon;timestamp;pressure;altitude;pressure_sealevel;temperature
24740;BMP280;45234;48.148;17.128;2024-03-02T00:01:06;99256.38;;;11.05
24740;BMP280;45234;48.148;17.128;2024-03-02T00:03:34;99256.50;;;11.10
24740;BMP280;45234;48.148;17.128;2024-03-02T00:06:01;99255.94;;;11.08
24740;BMP280;45234;48.148;17.128;2024-03-02T00:08:28;99258.06;;;11.11
24740;BMP280;45234;48.148;17.128;2024-03-02T00:11:00;99250.09;;;11.12
24740;BMP280;45234;48.148;17.128;2024-03-02T00:13:27;99242.41;;;11.24
24740;BMP280;45234;48.148;17.128;2024-03-02T00:15:57;99239.38;;;11.27
24740;BMP280;45234;48.148;17.128;2024-03-02T00:18:31;99249.69;;;11.15
24740;BMP280;45234;48.148;17.128;2024-03-02T00:20:59;99241.25;;;11.20
24740;BMP280;45234;48.148;17.128;2024-03-02T00:23:33;99252.06;;;11.17
24740;BMP280;45234;48.148;17.128;2024-03-02T00:26:00;99262.91;;;11.25
24740;BMP280;45234;48.148;17.128;2024-03-02T00:28:32;99260.56;;;11.24
24740;BMP280;45234;48.148;17.128;2024-03-02T00:31:10;99259.25;;;11.15
24740;BMP280;45234;48.148;17.128;2024-03-02T00:33:42;99260.41;;;11.19
24740;BMP280;45234;48.148;17.128;2024-03-02T00:36:10;99257.97;;;11.24
24740;BMP280;45234;48.148;17.128;2024-03-02T00:38:49;99260.41;;;11.19
24740;BMP280;45234;48.148;17.128;2024-03-02T00:41:36;99250.03;;;11.19
24740;BMP280;45234;48.148;17.128;2024-03-02T00:44:07;99241.97;;;11.27
24740;BMP280;45234;48.148;17.128;2024-03-02T00:46:37;99244.28;;;11.35
24740;BMP280;45234;48.148;17.128;2024-03-02T00:51:38;99239.81;;;11.24
24740;BMP280;45234;48.148;17.128;2024-03-02T00:54:07;99240.25;;;11.21
24740;BMP280;45234;48.148;17.128;2024-03-02T00:56:34;99239.94;;;11.11
24740;BMP280;45234;48.148;17.128;2024-03-02T00:59:02;99231.72;;;11.14
24740;BMP280;45234;48.148;17.128;2024-03-02T01:01:29;99233.47;;;11.20
24740;BMP280;45234;48.148;17.128;2024-03-02T01:03:55;99230.13;;;11.13
24740;BMP280;45234;48.148;17.128;2024-03-02T01:06:22;99229.13;;;11.14
24740;BMP280;45234;48.148;17.128;2024-03-02T01:08:49;99225.75;;;11.13
24740;BMP280;45234;48.148;17.128;2024-03-02T01:11:19;99245.31;;;11.16
24740;BMP280;45234;48.148;17.128;2024-03-02T01:13:50;99237.53;;;11.16
24740;BMP280;45234;48.148;17.128;2024-03-02T01:16:17;99238.06;;;11.18
24740;BMP280;45234;48.148;17.128;2024-03-02T01:18:44;99238.31;;;11.16
24740;BMP280;45234;48.148;17.128;2024-03-02T01:21:11;99242.97;;;11.08
24740;BMP280;45234;48.148;17.128;2024-03-02T01:23:38;99244.69;;;11.14
24740;BMP280;45234;48.148;17.128;2024-03-02T01:26:05;99242.41;;;11.24
24740;BMP280;45234;48.148;17.128;2024-03-02T01:28:32;99239.81;;;11.24
24740;BMP280;45234;48.148;17.128;2024-03-02T01:30:59;99234.47;;;11.19
24740;BMP280;45234;48.148;17.128;2024-03-02T01:33:26;99232.94;;;11.11
24740;BMP280;45234;48.148;17.128;2024-03-02T01:35:53;99240.16;;;11.09
24740;BMP280;45234;48.148;17.128;2024-03-02T01:38:19;99244.31;;;11.10
24740;BMP280;45234;48.148;17.128;2024-03-02T01:40:47;99237.91;;;11.13
24740;BMP280;45234;48.148;17.128;2024-03-02T01:43:13;99231.31;;;11.17
24740;BMP280;45234;48.148;17.128;2024-03-02T01:45:40;99234.69;;;11.17
24740;BMP280;45234;48.148;17.128;2024-03-02T01:48:08;99229.28;;;11.19
24740;BMP280;45234;48.148;17.128;2024-03-02T01:50:35;99219.06;;;11.24
24740;BMP280;45234;48.148;17.128;2024-03-02T01:53:02;99218.22;;;11.30
24740;BMP280;45234;48.148;17.128;2024-03-02T01:55:30;99214.72;;;11.36
24740;BMP280;45234;48.148;17.128;2024-03-02T01:57:58;99216.66;;;11.41
24740;BMP280;45234;48.148;17.128;2024-03-02T02:00:25;99221.38;;;11.32
24740;BMP280;45234;48.148;17.128;2024-03-02T02:02:54;99225.41;;;11.28
24740;BMP280;45234;48.148;17.128;2024-03-02T02:05:21;99220.00;;;11.29
24740;BMP280;45234;48.148;17.128;2024-03-02T02:07:48;99222.25;;;11.26
24740;BMP280;45234;48.148;17.128;2024-03-02T02:10:15;99211.72;;;11.21
24740;BMP280;45234;48.148;17.128;2024-03-02T02:12:44;99206.59;;;11.14
24740;BMP280;45234;48.148;17.128;2024-03-02T02:15:27;99206.78;;;10.94
24740;BMP280;45234;48.148;17.128;2024-03-02T02:17:55;99206.34;;;10.98
24740;BMP280;45234;48.148;17.128;2024-03-02T02:20:43;99200.59;;;10.95
24740;BMP280;45234;48.148;17.128;2024-03-02T02:23:10;99196.47;;;10.88
24740;BMP280;45234;48.148;17.128;2024-03-02T02:25:36;99200.91;;;10.81
24740;BMP280;45234;48.148;17.128;2024-03-02T02:28:03;99197.78;;;10.72
24740;BMP280;45234;48.148;17.128;2024-03-02T02:30:31;99193.47;;;10.66
24740;BMP280;45234;48.148;17.128;2024-03-02T02:32:59;99192.31;;;10.62
24740;BMP280;45234;48.148;17.128;2024-03-02T02:35:26;99198.91;;;10.58
24740;BMP280;45234;48.148;17.128;2024-03-02T02:37:54;99197.59;;;10.49
24740;BMP280;45234;48.148;17.128;2024-03-02T02:40:22;99197.25;;;10.39
24740;BMP280;45234;48.148;17.128;2024-03-02T02:42:49;99203.88;;;10.35
24740;BMP280;45234;48.148;17.128;2024-03-02T02:45:16;99208.69;;;10.31
24740;BMP280;45234;48.148;17.128;2024-03-02T02:47:44;99212.06;;;10.32
24740;BMP280;45234;48.148;17.128;2024-03-02T02:50:12;99200.13;;;10.31
24740;BMP280;45234;48.148;17.128;2024-03-02T02:52:41;99201.09;;;10.29
24740;BMP280;45234;48.148;17.128;2024-03-02T02:55:12;99208.25;;;10.34
24740;BMP280;45234;48.148;17.128;2024-03-02T02:57:40;99215.44;;;10.32
24740;BMP280;45234;48.148;17.128;2024-03-02T03:00:11;99206.09;;;10.31
24740;BMP280;45234;48.148;17.128;2024-03-02T03:02:45;99202.09;;;10.28
24740;BMP280;45234;48.148;17.128;2024-03-02T03:05:15;99204.19;;;10.20
24740;BMP280;45234;48.148;17.128;2024-03-02T03:07:42;99203.75;;;10.23
24740;BMP280;45234;48.148;17.128;2024-03-02T03:10:11;99208.06;;;10.36
24740;BMP280;45234;48.148;17.128;2024-03-02T03:12:38;99210.41;;;10.44
24740;BMP280;45234;48.148;17.128;2024-03-02T03:15:08;99219.16;;;10.43
24740;BMP280;45234;48.148;17.128;2024-03-02T03:17:35;99208.59;;;10.38
24740;BMP280;45234;48.148;17.128;2024-03-02T03:20:04;99208.47;;;10.33
24740;BMP280;45234;48.148;17.128;2024-03-02T03:22:32;99205.28;;;10.31
24740;BMP280;45234;48.148;17.128;2024-03-02T03:24:59;99212.91;;;10.25
24740;BMP280;45234;48.148;17.128;2024-03-02T03:27:27;99210.72;;;10.22
24740;BMP280;45234;48.148;17.128;2024-03-02T03:29:54;99208.56;;;10.13
24740;BMP280;45234;48.148;17.128;2024-03-02T03:32:21;99214.19;;;10.03
24740;BMP280;45234;48.148;17.128;2024-03-02T03:34:48;99213.56;;;10.14
24740;BMP280;45234;48.148;17.128;2024-03-02T03:37:15;99211.19;;;10.06
24740;BMP280;45234;48.148;17.128;2024-03-02T03:39:42;99207.66;;;10.01
24740;BMP280;45234;48.148;17.128;2024-03-02T03:42:09;99212.63;;;10.02
24740;BMP280;45234;48.148;17.128;2024-03-02T03:44:36;99203.84;;;10.03
24740;BMP280;45234;48.148;17.128;2024-03-02T03:47:03;99204.41;;;10.12
24740;BMP280;45234;48.148;17.128;2024-03-02T03:49:29;99213.78;;;10.06
24740;BMP280;45234;48.148;17.128;2024-03-02T03:51:57;99209.59;;;10.05
24740;BMP280;45234;48.148;17.128;2024-03-02T03:54:23;99210.84;;;10.03
24740;BMP280;45234;48.148;17.128;2024-03-02T03:56:51;99213.28;;;9.91
24740;BMP280;45234;48.148;17.128;2024-03-02T03:59:17;99219.63;;;9.95
24740;BMP280;45234;48.148;17.128;2024-03-02T04:01:44;99221.97;;;10.03
24740;BMP280;45234;48.148;17.128;2024-03-02T04:04:11;99218.97;;;10.06
24740;BMP280;45234;48.148;17.128;2024-03-02T04:06:38;99222.75;;;10.04
24740;BMP280;45234;48.148;17.128;2024-03-02T04:09:04;99217.38;;;10.05
24740;BMP280;45234;48.148;17.128;2024-03-02T04:11:31;99222.19;;;10.02
24740;BMP280;45234;48.148;17.128;2024-03-02T04:13:58;99218.38;;;10.04
24740;BMP280;45234;48.148;17.128;2024-03-02T04:16:25;99215.78;;;10.11
24740;BMP280;45234;48.148;17.128;2024-03-02T04:18:52;99218.13;;;10.12
24740;BMP280;45234;48.148;17.128;2024-03-02T04:21:19;99215.00;;;10.10
24740;BMP280;45234;48.148;17.128;2024-03-02T04:23:45;99217.38;;;10.05
24740;BMP280;45234;48.148;17.128;2024-03-02T04:26:12;99230.53;;;10.10
24740;BMP280;45234;48.148;17.128;2024-03-02T04:28:39;99223.69;;;10.16
24740;BMP280;45234;48.148;17.128;2024-03-02T04:31:06;99233.63;;;10.25
24740;BMP280;45234;48.148;17.128;2024-03-02T04:33:32;99242.38;;;10.24
24740;BMP280;45234;48.148;17.128;2024-03-02T04:35:59;99241.59;;;10.24
24740;BMP280;45234;48.148;17.128;2024-03-02T04:38:26;99245.97;;;10.23
24740;BMP280;45234;48.148;17.128;2024-03-02T04:40:53;99248.72;;;10.28
24740;BMP280;45234;48.148;17.128;2024-03-02T04:43:20;99237.97;;;10.32
24740;BMP280;45234;48.148;17.128;2024-03-02T04:45:47;99242.38;;;10.24
24740;BMP280;45234;48.148;17.128;2024-03-02T04:48:13;99236.63;;;10.22
24740;BMP280;45234;48.148;17.128;2024-03-02T04:50:41;99238.78;;;10.25
24740;BMP280;45234;48.148;17.128;2024-03-02T04:53:08;99238.00;;;10.25
24740;BMP280;45234;48.148;17.128;2024-03-02T04:55:34;99228.84;;;10.22
24740;BMP280;45234;48.148;17.128;2024-03-02T04:58:02;99225.25;;;10.23
24740;BMP280;45234;48.148;17.128;2024-03-02T05:00:28;99236.41;;;10.24
24740;BMP280;45234;48.148;17.128;2024-03-02T05:02:55;99225.66;;;10.20
24740;BMP280;45234;48.148;17.128;2024-03-02T05:05:22;99234.63;;;10.24
24740;BMP280;45234;48.148;17.128;2024-03-02T05:07:49;99226.84;;;10.24
24740;BMP280;45234;48.148;17.128;2024-03-02T05:10:16;99231.22;;;10.24
24740;BMP280;45234;48.148;17.128;2024-03-02T05:12:43;99231.44;;;10.22
24740;BMP280;45234;48.148;17.128;2024-03-02T05:15:11;99226.94;;;10.11
24740;BMP280;45234;48.148;17.128;2024-03-02T05:17:41;99227.72;;;10.05
24740;BMP280;45234;48.148;17.128;2024-03-02T05:20:12;99237.31;;;9.98
24740;BMP280;45234;48.148;17.128;2024-03-02T05:22:39;99234.34;;;9.94
24740;BMP280;45234;48.148;17.128;2024-03-02T05:25:07;99246.13;;;9.90
24740;BMP280;45234;48.148;17.128;2024-03-02T05:27:34;99236.38;;;9.92
24740;BMP280;45234;48.148;17.128;2024-03-02T05:30:01;99240.75;;;9.92
24740;BMP280;45234;48.148;17.128;2024-03-02T05:32:28;99242.56;;;9.85
24740;BMP280;45234;48.148;17.128;2024-03-02T05:34:55;99253.09;;;9.90
24740;BMP280;45234;48.148;17.128;2024-03-02T05:37:22;99243.75;;;9.89
24740;BMP280;45234;48.148;17.128;2024-03-02T05:39:49;99252.47;;;9.94
24740;BMP280;45234;48.148;17.128;2024-03-02T05:42:16;99251.25;;;9.97
24740;BMP280;45234;48.148;17.128;2024-03-02T05:44:46;99267.63;;;9.91
24740;BMP280;45234;48.148;17.128;2024-03-02T05:47:13;99262.88;;;9.88
24740;BMP280;45234;48.148;17.128;2024-03-02T05:49:40;99262.41;;;9.98
24740;BMP280;45234;48.148;17.128;2024-03-02T05:52:07;99277.50;;;10.07
24740;BMP280;45234;48.148;17.128;2024-03-02T05:54:33;99277.94;;;10.11
24740;BMP280;45234;48.148;17.128;2024-03-02T05:57:00;99271.50;;;10.13
24740;BMP280;45234;48.148;17.128;2024-03-02T05:59:43;99279.94;;;10.02
24740;BMP280;45234;48.148;17.128;2024-03-02T06:02:10;99284.47;;;10.07
24740;BMP280;45234;48.148;17.128;2024-03-02T06:04:37;99281.09;;;10.06
24740;BMP280;45234;48.148;17.128;2024-03-02T06:07:04;99281.88;;;10.13
24740;BMP280;45234;48.148;17.128;2024-03-02T06:09:31;99284.47;;;10.13
24740;BMP280;45234;48.148;17.128;2024-03-02T06:11:58;99295.44;;;10.09
24740;BMP280;45234;48.148;17.128;2024-03-02T06:14:24;99291.88;;;10.03
24740;BMP280;45234;48.148;17.128;2024-03-02T06:16:51;99278.31;;;10.08
24740;BMP280;45234;48.148;17.128;2024-03-02T06:19:18;99281.88;;;10.13
24740;BMP280;45234;48.148;17.128;2024-03-02T06:21:45;99273.91;;;10.15
24740;BMP280;45234;48.148;17.128;2024-03-02T06:24:12;99276.03;;;10.24
24740;BMP280;45234;48.148;17.128;2024-03-02T06:26:38;99283.34;;;10.41
24740;BMP280;45234;48.148;17.128;2024-03-02T06:29:06;99292.59;;;10.55
24740;BMP280;45234;48.148;17.128;2024-03-02T06:31:33;99303.91;;;10.67
24740;BMP280;45234;48.148;17.128;2024-03-02T06:34:00;99292.72;;;10.73
24740;BMP280;45234;48.148;17.128;2024-03-02T06:36:26;99289.47;;;10.78
24740;BMP280;45234;48.148;17.128;2024-03-02T06:38:53;99295.00;;;10.81
24740;BMP280;45234;48.148;17.128;2024-03-02T06:41:20;99296.22;;;10.85
24740;BMP280;45234;48.148;17.128;2024-03-02T06:43:47;99294.56;;;10.91
24740;BMP280;45234;48.148;17.128;2024-03-02T06:46:14;99301.50;;;10.97
24740;BMP280;45234;48.148;17.128;2024-03-02T06:48:42;99305.25;;;11.01
24740;BMP280;45234;48.148;17.128;2024-03-02T06:51:08;99302.88;;;11.00
24740;BMP280;45234;48.148;17.128;2024-03-02T06:53:35;99307.84;;;11.01
24740;BMP280;45234;48.148;17.128;2024-03-02T06:56:02;99304.00;;;11.04
24740;BMP280;45234;48.148;17.128;2024-03-02T06:58:29;99311.22;;;11.02
24740;BMP280;45234;48.148;17.128;2024-03-02T07:00:55;99314.25;;;10.99
24740;BMP280;45234;48.148;17.128;2024-03-02T07:03:22;99308.22;;;11.05
24740;BMP280;45234;48.148;17.128;2024-03-02T07:05:50;99305.75;;;11.10
24740;BMP280;45234;48.148;17.128;2024-03-02T07:08:17;99311.59;;;11.05
24740;BMP280;45234;48.148;17.128;2024-03-02T07:10:44;99315.25;;;10.98
24740;BMP280;45234;48.148;17.128;2024-03-02T07:13:10;99325.25;;;10.94
24740;BMP280;45234;48.148;17.128;2024-03-02T07:15:37;99324.94;;;10.84
24740;BMP280;45234;48.148;17.128;2024-03-02T07:18:23;99321.84;;;10.93
24740;BMP280;45234;48.148;17.128;2024-03-02T07:20:50;99327.84;;;10.94
24740;BMP280;45234;48.148;17.128;2024-03-02T07:23:16;99336.25;;;10.89
24740;BMP280;45234;48.148;17.128;2024-03-02T07:25:43;99338.06;;;10.82
24740;BMP280;45234;48.148;17.128;2024-03-02T07:28:13;99334.88;;;10.87
24740;BMP280;45234;48.148;17.128;2024-03-02T07:30:41;99337.41;;;10.93
24740;BMP280;45234;48.148;17.128;2024-03-02T07:33:08;99340.22;;;10.92
24740;BMP280;45234;48.148;17.128;2024-03-02T07:35:34;99334.00;;;11.00
24740;BMP280;45234;48.148;17.128;2024-03-02T07:38:01;99338.59;;;10.98
24740;BMP280;45234;48.148;17.128;2024-03-02T07:40:28;99338.72;;;11.03
24740;BMP280;45234;48.148;17.128;2024-03-02T07:42:55;99331.47;;;10.86
24740;BMP280;45234;48.148;17.128;2024-03-02T07:45:22;99332.91;;;10.82
24740;BMP280;45234;48.148;17.128;2024-03-02T07:47:49;99338.34;;;10.74
24740;BMP280;45234;48.148;17.128;2024-03-02T07:50:17;99347.28;;;10.78
24740;BMP280;45234;48.148;17.128;2024-03-02T07:52:44;99340.84;;;10.87
24740;BMP280;45234;48.148;17.128;2024-03-02T07:55:11;99344.03;;;10.89
24740;BMP280;45234;48.148;17.128;2024-03-02T07:57:37;99346.72;;;10.76
24740;BMP280;45234;48.148;17.128;2024-03-02T08:00:05;99349.63;;;10.86
24740;BMP280;45234;48.148;17.128;2024-03-02T08:02:37;99346.41;;;10.91
24740;BMP280;45234;48.148;17.128;2024-03-02T08:05:04;99338.78;;;10.96
24740;BMP280;45234;48.148;17.128;2024-03-02T08:07:31;99348.16;;;11.22
24740;BMP280;45234;48.148;17.128;2024-03-02T08:09:58;99345.75;;;11.27
24740;BMP280;45234;48.148;17.128;2024-03-02T08:12:25;99346.66;;;11.39
24740;BMP280;45234;48.148;17.128;2024-03-02T08:14:51;99345.72;;;11.52
24740;BMP280;45234;48.148;17.128;2024-03-02T08:17:18;99344.03;;;11.39
24740;BMP280;45234;48.148;17.128;2024-03-02T08:19:48;99345.91;;;11.32
24740;BMP280;45234;48.148;17.128;2024-03-02T08:22:15;99343.31;;;11.50
24740;BMP280;45234;48.148;17.128;2024-03-02T08:24:42;99343.84;;;11.59
24740;BMP280;45234;48.148;17.128;2024-03-02T08:27:10;99352.66;;;11.76
24740;BMP280;45234;48.148;17.128;2024-03-02T08:29:37;99348.09;;;11.72
24740;BMP280;45234;48.148;17.128;2024-03-02T08:32:04;99344.88;;;11.76
24740;BMP280;45234;48.148;17.128;2024-03-02T08:34:31;99347.56;;;11.99
24740;BMP280;45234;48.148;17.128;2024-03-02T08:36:58;99342.47;;;12.11
24740;BMP280;45234;48.148;17.128;2024-03-02T08:39:25;99349.41;;;12.29
24740;BMP280;45234;48.148;17.128;2024-03-02T08:41:52;99351.72;;;12.37
24740;BMP280;45234;48.148;17.128;2024-03-02T08:44:19;99357.72;;;12.38
24740;BMP280;45234;48.148;17.128;2024-03-02T08:46:46;99347.31;;;12.38
24740;BMP280;45234;48.148;17.128;2024-03-02T08:49:13;99353.81;;;12.47
24740;BMP280;45234;48.148;17.128;2024-03-02T08:51:40;99346.00;;;12.47
24740;BMP280;45234;48.148;17.128;2024-03-02T08:54:07;99347.41;;;12.31
24740;BMP280;45234;48.148;17.128;2024-03-02T08:56:34;99347.78;;;12.35
24740;BMP280;45234;48.148;17.128;2024-03-02T08:59:01;99350.50;;;12.40
24740;BMP280;45234;48.148;17.128;2024-03-02T09:01:28;99341.13;;;12.50
24740;BMP280;45234;48.148;17.128;2024-03-02T09:03:55;99337.34;;;12.64
24740;BMP280;45234;48.148;17.128;2024-03-02T09:06:22;99339.31;;;12.92
24740;BMP280;45234;48.148;17.128;2024-03-02T09:08:49;99345.22;;;13.23
24740;BMP280;45234;48.148;17.128;2024-03-02T09:11:18;99340.47;;;13.43
24740;BMP280;45234;48.148;17.128;2024-03-02T09:13:45;99338.63;;;13.55
24740;BMP280;45234;48.148;17.128;2024-03-02T09:16:13;99345.66;;;13.66
24740;BMP280;45234;48.148;17.128;2024-03-02T09:18:40;99349.19;;;13.60
24740;BMP280;45234;48.148;17.128;2024-03-02T09:21:07;99347.69;;;13.64
24740;BMP280;45234;48.148;17.128;2024-03-02T09:23:34;99351.53;;;13.74
24740;BMP280;45234;48.148;17.128;2024-03-02T09:26:01;99350.59;;;13.80
24740;BMP280;45234;48.148;17.128;2024-03-02T09:28:28;99354.41;;;13.60
24740;BMP280;45234;48.148;17.128;2024-03-02T09:30:54;99357.91;;;13.54
24740;BMP280;45234;48.148;17.128;2024-03-02T09:33:27;99354.59;;;13.47
24740;BMP280;45234;48.148;17.128;2024-03-02T09:35:54;99359.69;;;13.65
24740;BMP280;45234;48.148;17.128;2024-03-02T09:38:21;99358.41;;;13.80
24740;BMP280;45234;48.148;17.128;2024-03-02T09:40:48;99352.06;;;13.76
24740;BMP280;45234;48.148;17.128;2024-03-02T09:43:15;99355.25;;;13.78
24740;BMP280;45234;48.148;17.128;2024-03-02T09:45:42;99354.78;;;13.81
24740;BMP280;45234;48.148;17.128;2024-03-02T09:48:09;99358.41;;;13.80
24740;BMP280;45234;48.148;17.128;2024-03-02T09:50:36;99349.16;;;13.72
24740;BMP280;45234;48.148;17.128;2024-03-02T09:53:03;99357.16;;;13.82
24740;BMP280;45234;48.148;17.128;2024-03-02T09:55:30;99352.00;;;13.70
24740;BMP280;45234;48.148;17.128;2024-03-02T09:57:57;99346.78;;;13.70
24740;BMP280;45234;48.148;17.128;2024-03-02T10:00:24;99351.09;;;13.65
24740;BMP280;45234;48.148;17.128;2024-03-02T10:02:52;99352.94;;;13.41
24740;BMP280;45234;48.148;17.128;2024-03-02T10:05:26;99337.31;;;13.18
24740;BMP280;45234;48.148;17.128;2024-03-02T10:08:03;99344.56;;;13.27
24740;BMP280;45234;48.148;17.128;2024-03-02T10:10:37;99343.44;;;13.35
24740;BMP280;45234;48.148;17.128;2024-03-02T10:13:07;99342.75;;;13.28
24740;BMP280;45234;48.148;17.128;2024-03-02T10:15:35;99345.47;;;13.21
24740;BMP280;45234;48.148;17.128;2024-03-02T10:18:12;99348.16;;;13.15
24740;BMP280;45234;48.148;17.128;2024-03-02T10:20:40;99340.50;;;13.20
24740;BMP280;45234;48.148;17.128;2024-03-02T10:23:15;99350.56;;;13.16
24740;BMP280;45234;48.148;17.128;2024-03-02T10:25:43;99338.13;;;13.07
24740;BMP280;45234;48.148;17.128;2024-03-02T10:28:23;99346.25;;;12.98
24740;BMP280;45234;48.148;17.128;2024-03-02T10:30:50;99343.84;;;12.97
24740;BMP280;45234;48.148;17.128;2024-03-02T10:33:19;99343.88;;;13.09
24740;BMP280;45234;48.148;17.128;2024-03-02T10:35:49;99339.81;;;13.01
24740;BMP280;45234;48.148;17.128;2024-03-02T10:38:16;99340.03;;;12.99
24740;BMP280;45234;48.148;17.128;2024-03-02T10:40:47;99338.44;;;12.98
24740;BMP280;45234;48.148;17.128;2024-03-02T10:43:16;99346.81;;;13.12
24740;BMP280;45234;48.148;17.128;2024-03-02T10:45:44;99351.44;;;13.10
24740;BMP280;45234;48.148;17.128;2024-03-02T10:48:12;99340.81;;;13.00
24740;BMP280;45234;48.148;17.128;2024-03-02T10:50:39;99338.44;;;12.98
24740;BMP280;45234;48.148;17.128;2024-03-02T10:53:06;99343.06;;;12.96
24740;BMP280;45234;48.148;17.128;2024-03-02T10:55:32;99337.72;;;12.91
24740;BMP280;45234;48.148;17.128;2024-03-02T10:58:01;99328.59;;;12.89
24740;BMP280;45234;48.148;17.128;2024-03-02T11:00:34;99338.22;;;12.88
24740;BMP280;45234;48.148;17.128;2024-03-02T11:03:08;99338.09;;;12.95
24740;BMP280;45234;48.148;17.128;2024-03-02T11:05:41;99335.69;;;12.93
24740;BMP280;45234;48.148;17.128;2024-03-02T11:08:16;99331.63;;;12.74
24740;BMP280;45234;48.148;17.128;2024-03-02T11:10:57;99341.09;;;12.69
24740;BMP280;45234;48.148;17.128;2024-03-02T11:13:34;99339.94;;;12.53
24740;BMP280;45234;48.148;17.128;2024-03-02T11:16:09;99345.53;;;12.50
24740;BMP280;45234;48.148;17.128;2024-03-02T11:18:37;99336.84;;;12.44
24740;BMP280;45234;48.148;17.128;2024-03-02T11:21:07;99334.47;;;12.43
24740;BMP280;45234;48.148;17.128;2024-03-02T11:23:35;99337.19;;;12.48
24740;BMP280;45234;48.148;17.128;2024-03-02T11:26:21;99334.22;;;12.32
24740;BMP280;45234;48.148;17.128;2024-03-02T11:28:50;99329.13;;;12.38
24740;BMP280;45234;48.148;17.128;2024-03-02T11:31:16;99324.16;;;12.36
24740;BMP280;45234;48.148;17.128;2024-03-02T11:33:43;99324.88;;;12.43
24740;BMP280;45234;48.148;17.128;2024-03-02T11:36:10;99323.94;;;12.38
24740;BMP280;45234;48.148;17.128;2024-03-02T11:38:38;99327.28;;;12.26
24740;BMP280;45234;48.148;17.128;2024-03-02T11:41:08;99332.94;;;12.23
24740;BMP280;45234;48.148;17.128;2024-03-02T11:43:39;99317.72;;;12.09
24740;BMP280;45234;48.148;17.128;2024-03-02T11:46:06;99335.28;;;12.13
24740;BMP280;45234;48.148;17.128;2024-03-02T11:48:36;99320.84;;;11.99
24740;BMP280;45234;48.148;17.128;2024-03-02T11:51:06;99324.19;;;11.99
24740;BMP280;45234;48.148;17.128;2024-03-02T11:53:34;99325.66;;;11.95
24740;BMP280;45234;48.148;17.128;2024-03-02T11:56:02;99314.94;;;11.92
24740;BMP280;45234;48.148;17.128;2024-03-02T11:58:29;99335.19;;;12.02
24740;BMP280;45234;48.148;17.128;2024-03-02T12:00:57;99335.84;;;11.97
24740;BMP280;45234;48.148;17.128;2024-03-02T12:03:25;99327.94;;;11.92
24740;BMP280;45234;48.148;17.128;2024-03-02T12:05:54;99333.53;;;11.89
24740;BMP280;45234;48.148;17.128;2024-03-02T12:08:21;99329.84;;;11.96
24740;BMP280;45234;48.148;17.128;2024-03-02T12:11:01;99328.34;;;11.89
24740;BMP280;45234;48.148;17.128;2024-03-02T12:13:30;99335.53;;;11.87
24740;BMP280;45234;48.148;17.128;2024-03-02T12:15:57;99332.25;;;11.80
24740;BMP280;45234;48.148;17.128;2024-03-02T12:18:25;99336.06;;;11.77
24740;BMP280;45234;48.148;17.128;2024-03-02T12:20:53;99331.03;;;11.82
24740;BMP280;45234;48.148;17.128;2024-03-02T12:23:24;99332.41;;;11.85
24740;BMP280;45234;48.148;17.128;2024-03-02T12:25:51;99329.81;;;11.85
24740;BMP280;45234;48.148;17.128;2024-03-02T12:28:19;99322.97;;;11.90
24740;BMP280;45234;48.148;17.128;2024-03-02T12:30:46;99329.41;;;11.99
24740;BMP280;45234;48.148;17.128;2024-03-02T12:33:14;99324.16;;;12.06
24740;BMP280;45234;48.148;17.128;2024-03-02T12:35:41;99327.47;;;12.13
24740;BMP280;45234;48.148;17.128;2024-03-02T12:38:10;99321.25;;;12.14
24740;BMP280;45234;48.148;17.128;2024-03-02T12:40:37;99322.81;;;12.15
24740;BMP280;45234;48.148;17.128;2024-03-02T12:43:05;99327.88;;;12.10
24740;BMP280;45234;48.148;17.128;2024-03-02T12:45:34;99324.50;;;12.10
24740;BMP280;45234;48.148;17.128;2024-03-02T12:48:01;99324.88;;;12.13
24740;BMP280;45234;48.148;17.128;2024-03-02T12:50:29;99321.81;;;12.16
24740;BMP280;45234;48.148;17.128;2024-03-02T12:52:56;99327.59;;;12.18
24740;BMP280;45234;48.148;17.128;2024-03-02T12:55:23;99320.69;;;12.12
24740;BMP280;45234;48.148;17.128;2024-03-02T12:57:52;99314.91;;;12.10
24740;BMP280;45234;48.148;17.128;2024-03-02T13:00:21;99318.97;;;12.06
24740;BMP280;45234;48.148;17.128;2024-03-02T13:02:50;99316.38;;;12.06
24740;BMP280;45234;48.148;17.128;2024-03-02T13:05:18;99314.91;;;12.10
24740;BMP280;45234;48.148;17.128;2024-03-02T13:07:48;99314.50;;;12.13
24740;BMP280;45234;48.148;17.128;2024-03-02T13:10:16;99318.44;;;12.16
24740;BMP280;45234;48.148;17.128;2024-03-02T13:12:43;99307.47;;;12.14
24740;BMP280;45234;48.148;17.128;2024-03-02T13:15:10;99300.53;;;12.08
24740;BMP280;45234;48.148;17.128;2024-03-02T13:17:44;99303.59;;;12.05
24740;BMP280;45234;48.148;17.128;2024-03-02T13:20:10;99313.78;;;12.06
24740;BMP280;45234;48.148;17.128;2024-03-02T13:22:37;99300.81;;;11.99
24740;BMP280;45234;48.148;17.128;2024-03-02T13:25:04;99305.25;;;11.99
24740;BMP280;45234;48.148;17.128;2024-03-02T13:27:33;99311.59;;;12.03
24740;BMP280;45234;48.148;17.128;2024-03-02T13:30:01;99300.44;;;12.03
24740;BMP280;45234;48.148;17.128;2024-03-02T13:32:29;99313.31;;;12.09
24740;BMP280;45234;48.148;17.128;2024-03-02T13:34:55;99305.22;;;12.17
24740;BMP280;45234;48.148;17.128;2024-03-02T13:37:22;99315.25;;;12.14
24740;BMP280;45234;48.148;17.128;2024-03-02T13:39:49;99312.41;;;12.04
24740;BMP280;45234;48.148;17.128;2024-03-02T13:42:17;99303.53;;;11.93
24740;BMP280;45234;48.148;17.128;2024-03-02T13:44:44;99312.34;;;11.92
24740;BMP280;45234;48.148;17.128;2024-03-02T13:47:16;99310.38;;;11.87
24740;BMP280;45234;48.148;17.128;2024-03-02T13:49:43;99310.03;;;11.84
24740;BMP280;45234;48.148;17.128;2024-03-02T13:52:12;99311.66;;;11.78
24740;BMP280;45234;48.148;17.128;2024-03-02T13:54:45;99311.91;;;11.77
24740;BMP280;45234;48.148;17.128;2024-03-02T13:57:12;99321.44;;;11.83
24740;BMP280;45234;48.148;17.128;2024-03-02T13:59:41;99312.06;;;11.82
24740;BMP280;45234;48.148;17.128;2024-03-02T14:02:08;99316.03;;;11.84
24740;BMP280;45234;48.148;17.128;2024-03-02T14:04:36;99315.25;;;11.84